Time;durP1;ratioP1;P1;durP2;ratioP2;P2;SDS_P1;SDS_P2;PMS_P1;PMS_P2;Temp;Humidity;BMP_temperature;BMP_pressure;BME280_temperature;BME280_humidity;BME280_pressure;Samples;Min_cycle;Max_cycle;Signal;HPM_P1;HPM_P2
2023/11/30 00:02:16;;;;;;;3.63;2.25;;;;;;;1.17;85.35;91623.56;4936436;29;20047;-79
2023/11/30 00:04:42;;;;;;;3.70;2.10;;;;;;;1.17;84.33;91628.72;4932374;29;20036;-79
2023/11/30 00:07:11;;;;;;;3.17;1.90;;;;;;;1.16;85.02;91616.88;4930940;29;20023;-79
2023/11/30 00:09:37;;;;;;;4.13;2.20;;;;;;;1.15;84.20;91616.13;4935451;29;20051;-79
2023/11/30 00:12:04;;;;;;;5.68;2.20;;;;;;;1.11;84.11;91609.13;4936031;29;20046;-78
2023/11/30 00:14:30;;;;;;;3.67;2.22;;;;;;;1.14;84.77;91608.63;4935890;29;20036;-78
2023/11/30 00:16:55;;;;;;;3.60;1.90;;;;;;;1.15;84.32;91610.16;4935540;29;20119;-79
2023/11/30 00:19:21;;;;;;;3.65;2.00;;;;;;;1.15;83.49;91610.97;4936460;29;20058;-78
2023/11/30 00:21:46;;;;;;;3.88;2.30;;;;;;;1.16;83.08;91601.41;4931741;29;20060;-79
2023/11/30 00:24:12;;;;;;;3.67;2.13;;;;;;;1.17;83.11;91597.78;4951910;29;20056;-78
2023/11/30 00:26:38;;;;;;;3.63;2.10;;;;;;;1.16;82.97;91601.41;4954598;29;20502;-79
2023/11/30 00:29:05;;;;;;;4.45;2.35;;;;;;;1.17;83.04;91597.78;4944797;28;20040;-79
2023/11/30 00:31:31;;;;;;;3.70;2.17;;;;;;;1.14;81.98;91599.06;4939750;29;20027;-79
2023/11/30 00:33:57;;;;;;;4.65;2.20;;;;;;;1.15;82.99;91590.34;4936990;29;20040;-79
2023/11/30 00:36:23;;;;;;;3.50;2.20;;;;;;;1.15;82.61;91599.84;4934122;29;20444;-79
2023/11/30 00:38:48;;;;;;;4.50;2.40;;;;;;;1.16;83.28;91594.44;4919452;29;20119;-79
2023/11/30 00:41:16;;;;;;;4.38;2.10;;;;;;;1.16;82.30;91585.94;4934562;29;20120;-79
2023/11/30 00:43:42;;;;;;;4.70;2.40;;;;;;;1.15;81.58;91576.66;4936032;29;20070;-79
2023/11/30 00:46:14;;;;;;;3.90;2.30;;;;;;;1.15;81.07;91574.88;4936403;29;20039;-79
2023/11/30 00:48:42;;;;;;;;;;;;;;;1.13;79.64;91566.59;4936762;29;20039;-79
2023/11/30 00:51:09;;;;;;;3.90;1.98;;;;;;;1.08;79.69;91548.53;4936547;29;19957;-79
2023/11/30 00:53:39;;;;;;;3.95;2.28;;;;;;;1.12;79.37;91559.13;4936176;29;20048;-78
2023/11/30 00:56:06;;;;;;;4.30;2.08;;;;;;;1.14;79.79;91562.22;4938287;29;20688;-78
2023/11/30 00:58:31;;;;;;;5.80;2.30;;;;;;;1.12;81.51;91544.41;4939432;29;20238;-78
2023/11/30 01:00:57;;;;;;;3.17;1.85;;;;;;;1.13;80.80;91540.06;4937869;29;20496;-78
2023/11/30 01:03:23;;;;;;;3.42;2.13;;;;;;;1.13;80.78;91534.91;4940375;29;20070;-79
2023/11/30 01:05:49;;;;;;;3.83;2.13;;;;;;;1.12;81.74;91533.34;4939163;29;20415;-79
2023/11/30 01:08:15;;;;;;;3.92;2.00;;;;;;;1.11;83.10;91536.94;4938694;29;20050;-78
2023/11/30 01:10:41;;;;;;;4.55;2.35;;;;;;;1.11;83.03;91536.94;4940229;29;20036;-79
2023/11/30 01:13:07;;;;;;;5.75;2.30;;;;;;;1.09;83.27;91536.44;4938535;29;20042;-79
2023/11/30 01:15:33;;;;;;;4.03;2.10;;;;;;;1.09;83.75;91528.69;4939972;29;20307;-79
2023/11/30 01:17:59;;;;;;;3.50;2.20;;;;;;;1.10;83.17;91522.50;4938737;29;20036;-79
2023/11/30 01:20:25;;;;;;;3.55;2.20;;;;;;;1.07;82.46;91516.03;4921687;29;20108;-79
2023/11/30 01:22:50;;;;;;;3.38;2.00;;;;;;;1.08;81.60;91517.63;4940143;29;20508;-79
2023/11/30 01:25:17;;;;;;;3.60;2.10;;;;;;;1.10;81.48;91530.22;4936315;29;20036;-79
2023/11/30 01:27:43;;;;;;;4.30;2.30;;;;;;;1.11;83.88;91531.78;4939385;29;20082;-79
2023/11/30 01:30:10;;;;;;;2.97;1.95;;;;;;;1.08;83.39;91527.94;4938359;29;20035;-79
2023/11/30 01:32:36;;;;;;;3.88;1.90;;;;;;;1.09;80.89;91528.69;4939867;29;20039;-78
2023/11/30 01:35:03;;;;;;;3.50;2.05;;;;;;;1.08;80.97;91521.97;4939493;29;20175;-79
2023/11/30 01:37:29;;;;;;;3.33;2.15;;;;;;;1.10;80.61;91530.22;4927429;29;20551;-79
2023/11/30 01:39:55;;;;;;;4.47;1.95;;;;;;;1.10;81.25;91525.84;4939768;29;20059;-78
2023/11/30 01:42:21;;;;;;;4.13;2.22;;;;;;;1.10;81.68;91520.69;4938059;29;20094;-79
2023/11/30 01:44:47;;;;;;;3.40;2.10;;;;;;;1.09;83.30;91536.44;4938788;29;20043;-79
2023/11/30 01:47:15;;;;;;;3.03;2.10;;;;;;;1.12;82.72;91535.91;4937790;29;20051;-79
2023/11/30 01:49:41;;;;;;;3.42;2.28;;;;;;;1.13;81.82;91529.75;4922606;29;20130;-79
2023/11/30 01:52:07;;;;;;;4.18;2.10;;;;;;;1.10;81.81;91531.00;4940399;29;20036;-78
2023/11/30 01:54:34;;;;;;;3.90;2.20;;;;;;;1.15;82.19;91543.13;4942889;29;20043;-78
2023/11/30 01:57:01;;;;;;;3.90;2.08;;;;;;;1.14;82.50;91537.22;4942670;29;20403;-79
2023/11/30 01:59:27;;;;;;;3.45;2.05;;;;;;;1.15;82.17;91527.66;4940169;29;20040;-78
2023/11/30 02:01:52;;;;;;;3.40;2.00;;;;;;;1.15;82.15;91523.31;4937773;29;20062;-78
2023/11/30 02:04:20;;;;;;;3.40;2.00;;;;;;;1.16;81.27;91518.91;4937369;29;20132;-79
2023/11/30 02:06:47;;;;;;;4.68;2.28;;;;;;;1.17;79.36;91520.47;4938832;29;20038;-78
2023/11/30 02:09:13;;;;;;;3.53;2.00;;;;;;;1.16;79.15;91516.34;4937929;29;20036;-78
2023/11/30 02:11:39;;;;;;;4.80;2.22;;;;;;;1.18;78.63;91511.72;4939285;29;20039;-78
2023/11/30 02:14:05;;;;;;;4.13;2.10;;;;;;;1.12;80.82;91503.16;4938775;29;20048;-78
2023/11/30 02:16:31;;;;;;;3.78;1.98;;;;;;;1.19;80.17;91515.84;4926607;29;20064;-78
2023/11/30 02:18:56;;;;;;;3.67;2.00;;;;;;;1.19;79.95;91508.09;4950767;28;20036;-78
2023/11/30 02:21:23;;;;;;;3.60;2.00;;;;;;;1.18;81.00;91509.91;4938991;29;20365;-79
2023/11/30 02:23:49;;;;;;;3.53;2.03;;;;;;;1.21;78.27;91495.72;4938189;29;20054;-78
2023/11/30 02:26:18;;;;;;;7.88;2.20;;;;;;;1.17;78.45;91490.31;4938557;29;20031;-79
2023/11/30 02:28:44;;;;;;;3.35;2.15;;;;;;;1.23;78.84;91496.25;4937182;29;20023;-78
2023/11/30 02:31:10;;;;;;;3.90;2.08;;;;;;;1.22;79.24;91499.88;4938515;29;20082;-79
2023/11/30 02:33:36;;;;;;;3.90;2.20;;;;;;;1.20;79.20;91496.78;4939855;29;20032;-79
2023/11/30 02:36:02;;;;;;;4.25;2.35;;;;;;;1.22;80.12;91499.88;4938609;29;20175;-78
2023/11/30 02:38:28;;;;;;;4.22;2.30;;;;;;;1.22;79.48;91484.41;4921903;29;20039;-79
2023/11/30 02:40:53;;;;;;;3.47;2.03;;;;;;;1.22;79.62;91479.25;4938118;29;20036;-79
2023/11/30 02:43:19;;;;;;;3.90;2.30;;;;;;;1.21;81.38;91477.69;4938229;29;20209;-78
2023/11/30 02:45:44;;;;;;;3.60;2.10;;;;;;;1.18;83.08;91480.78;4936560;29;20083;-79
2023/11/30 02:48:10;;;;;;;4.47;2.13;;;;;;;1.17;83.51;91481.78;4933231;29;20488;-79
2023/11/30 02:50:36;;;;;;;3.38;2.10;;;;;;;1.15;83.66;91461.44;4902021;29;20051;-79
2023/11/30 02:53:01;;;;;;;5.18;2.20;;;;;;;1.18;83.59;91463.50;4931793;29;20062;-78
2023/11/30 02:55:27;;;;;;;3.63;2.08;;;;;;;1.17;83.13;91463.75;4936748;29;20083;-79
2023/11/30 02:57:53;;;;;;;3.72;2.20;;;;;;;1.16;82.37;91459.63;4938656;29;20512;-79
2023/11/30 03:00:18;;;;;;;4.38;2.15;;;;;;;1.16;82.05;91452.66;4937931;29;20059;-79
2023/11/30 03:02:44;;;;;;;4.30;2.15;;;;;;;1.13;82.76;91448.03;4931940;29;20091;-79
2023/11/30 03:05:10;;;;;;;5.63;2.17;;;;;;;1.09;83.57;91448.78;4937671;29;20122;-78
2023/11/30 03:07:35;;;;;;;3.88;2.20;;;;;;;1.16;83.86;91446.75;4920710;29;20028;-78
2023/11/30 03:10:01;;;;;;;5.97;2.17;;;;;;;1.16;85.14;91441.59;4938348;29;20042;-79
2023/11/30 03:12:27;;;;;;;3.13;1.90;;;;;;;1.16;85.09;91436.44;4937794;29;20458;-78
2023/11/30 03:14:52;;;;;;;4.20;2.38;;;;;;;1.14;85.75;91428.94;4936895;29;20047;-79
2023/11/30 03:17:18;;;;;;;3.90;2.20;;;;;;;1.14;85.87;91428.19;4936287;29;20598;-78
2023/11/30 03:19:43;;;;;;;3.70;1.98;;;;;;;1.12;84.47;91425.06;4927876;29;20039;-79
2023/11/30 03:22:09;;;;;;;4.03;2.30;;;;;;;1.11;83.67;91416.56;4935963;29;20082;-79
2023/11/30 03:24:35;;;;;;;3.33;2.13;;;;;;;1.10;82.64;91417.59;4936263;29;20036;-78
2023/11/30 03:27:00;;;;;;;4.20;2.30;;;;;;;1.09;83.37;91413.47;4936841;29;20036;-79
2023/11/30 03:29:26;;;;;;;3.50;2.20;;;;;;;1.08;83.31;91408.56;4936123;29;20515;-78
2023/11/30 03:31:53;;;;;;;3.58;2.10;;;;;;;1.05;79.03;91415.00;4936931;29;20069;-79
2023/11/30 03:34:18;;;;;;;3.60;2.10;;;;;;;1.10;79.06;91398.78;4937055;29;20071;-79
2023/11/30 03:36:44;;;;;;;3.53;2.17;;;;;;;1.06;80.18;91408.84;4937448;29;20075;-79
2023/11/30 03:39:09;;;;;;;3.85;2.10;;;;;;;1.06;79.10;91406.25;4936975;29;20043;-78
2023/11/30 03:41:35;;;;;;;4.00;2.20;;;;;;;1.01;78.42;91409.59;4933340;29;20029;-79
2023/11/30 03:44:01;;;;;;;3.10;2.00;;;;;;;0.99;76.16;91406.50;4933857;29;20058;-78
2023/11/30 03:46:27;;;;;;;3.55;1.95;;;;;;;0.94;76.37;91398.72;4937513;29;20382;-79
2023/11/30 03:48:54;;;;;;;4.13;2.05;;;;;;;1.00;79.89;91415.75;4904569;29;20046;-79
2023/11/30 03:51:20;;;;;;;3.20;1.88;;;;;;;0.93;77.27;91417.81;4936513;29;20044;-78
2023/11/30 03:53:46;;;;;;;3.22;1.95;;;;;;;0.89;77.97;91408.25;4937744;29;20032;-78
2023/11/30 03:56:12;;;;;;;3.83;1.95;;;;;;;0.81;78.12;91387.13;4936391;29;20250;-78
2023/11/30 03:58:37;;;;;;;3.53;2.10;;;;;;;0.86;79.59;91416.47;4938322;29;20047;-79
2023/11/30 04:01:04;;;;;;;3.17;1.92;;;;;;;0.81;80.61;91396.63;4926107;29;20511;-78
2023/11/30 04:03:29;;;;;;;3.05;1.85;;;;;;;0.80;80.96;91395.84;4938358;29;20028;-78
2023/11/30 04:05:55;;;;;;;4.85;2.30;;;;;;;0.83;83.01;91392.78;4937191;29;20546;-78
2023/11/30 04:08:21;;;;;;;3.83;2.40;;;;;;;0.85;85.05;91399.47;4938472;29;20036;-79
2023/11/30 04:10:47;;;;;;;3.42;2.08;;;;;;;0.82;85.70;91396.38;4938512;29;20036;-78
2023/11/30 04:13:12;;;;;;;3.20;1.90;;;;;;;0.83;85.83;91384.28;4938283;29;20050;-79
2023/11/30 04:15:38;;;;;;;3.97;2.25;;;;;;;0.76;86.97;91383.72;4932728;29;20044;-78
2023/11/30 04:18:03;;;;;;;4.20;2.08;;;;;;;0.71;88.36;91370.84;4935995;29;20070;-77
2023/11/30 04:20:29;;;;;;;3.70;2.10;;;;;;;0.66;87.95;91373.41;4938718;29;20546;-79
2023/11/30 04:22:54;;;;;;;3.80;2.15;;;;;;;0.61;88.25;91356.13;4937997;29;20065;-79
2023/11/30 04:25:20;;;;;;;4.10;2.30;;;;;;;0.61;90.06;91354.34;4930864;29;20058;-78
2023/11/30 04:27:45;;;;;;;3.58;2.10;;;;;;;0.64;85.64;91340.16;4939462;28;20039;-78
2023/11/30 04:30:11;;;;;;;3.75;2.08;;;;;;;0.56;85.79;91338.88;4954590;29;20095;-78
2023/11/30 04:32:37;;;;;;;5.72;2.10;;;;;;;0.62;85.01;91361.03;4953896;28;20044;-79
2023/11/30 04:35:03;;;;;;;4.75;2.00;;;;;;;0.61;86.13;91353.56;4954988;28;20091;-77
2023/11/30 04:37:28;;;;;;;3.72;2.10;;;;;;;0.64;85.04;91347.13;4942702;28;20068;-78
2023/11/30 04:39:54;;;;;;;3.08;1.75;;;;;;;0.64;84.87;91347.91;4965447;28;20020;-78
2023/11/30 04:42:20;;;;;;;3.40;1.95;;;;;;;0.60;82.89;91350.19;4953539;29;20087;-78
2023/11/30 04:44:47;;;;;;;2.78;1.80;;;;;;;0.60;82.55;91341.69;4934091;29;20072;-77
2023/11/30 04:47:13;;;;;;;3.20;1.83;;;;;;;0.52;80.20;91331.88;4952133;28;20036;-78
2023/11/30 04:49:40;;;;;;;3.30;1.92;;;;;;;0.53;82.41;91338.59;4938172;29;20028;-77
2023/11/30 04:52:05;;;;;;;3.03;1.75;;;;;;;0.55;80.65;91350.19;4937906;29;20054;-77
2023/11/30 04:54:31;;;;;;;3.65;2.00;;;;;;;0.62;79.93;91355.09;4953123;28;20027;-77
2023/11/30 04:56:56;;;;;;;4.75;1.80;;;;;;;0.57;81.07;91360.25;4949395;28;20067;-78
2023/11/30 04:59:22;;;;;;;3.55;1.90;;;;;;;0.58;81.22;91357.41;4939390;29;20044;-79
2023/11/30 05:01:47;;;;;;;2.85;1.60;;;;;;;0.50;82.27;91357.91;4937844;29;20138;-79
2023/11/30 05:04:13;;;;;;;2.95;1.67;;;;;;;0.50;83.22;91352.75;4937345;29;20055;-79
2023/11/30 05:06:39;;;;;;;3.30;1.90;;;;;;;0.50;84.72;91357.13;4936618;29;20036;-79
2023/11/30 05:09:05;;;;;;;4.13;1.83;;;;;;;0.49;85.32;91368.44;4937635;29;20404;-78
2023/11/30 05:11:31;;;;;;;3.75;1.80;;;;;;;0.48;91.15;91357.38;4936946;29;20070;-79
2023/11/30 05:13:57;;;;;;;2.85;1.70;;;;;;;0.51;93.59;91374.13;4937200;29;20027;-79
2023/11/30 05:16:22;;;;;;;3.67;2.00;;;;;;;0.53;100.00;91367.69;4935403;29;20040;-79
2023/11/30 05:18:48;;;;;;;4.07;2.40;;;;;;;0.52;100.00;91366.16;4936533;29;20063;-79
2023/11/30 05:21:14;;;;;;;3.63;2.10;;;;;;;0.47;100.00;91373.84;4936694;29;20423;-78
2023/11/30 05:23:39;;;;;;;5.57;2.40;;;;;;;0.42;100.00;91371.25;4907155;29;20489;-79
2023/11/30 05:26:05;;;;;;;4.30;2.00;;;;;;;0.40;100.00;91373.28;4933449;29;20038;-78
2023/11/30 05:28:32;;;;;;;3.97;2.28;;;;;;;0.38;100.00;91380.50;4936238;29;20028;-78
2023/11/30 05:30:58;;;;;;;4.15;2.30;;;;;;;0.34;100.00;91382.81;4935693;29;20039;-79
2023/11/30 05:33:25;;;;;;;3.63;2.10;;;;;;;0.35;100.00;91375.84;4934555;29;20048;-78
2023/11/30 05:35:51;;;;;;;3.83;2.05;;;;;;;0.29;100.00;91376.84;4926503;29;20031;-78
2023/11/30 05:38:16;;;;;;;2.80;1.80;;;;;;;0.38;100.00;91375.34;4931205;29;20047;-78
2023/11/30 05:40:42;;;;;;;3.53;2.10;;;;;;;0.54;100.00;91387.28;4918768;29;20074;-80
2023/11/30 05:43:08;;;;;;;4.03;2.10;;;;;;;0.57;100.00;91393.72;4943791;29;20038;-77
2023/11/30 05:45:33;;;;;;;3.45;2.10;;;;;;;0.50;100.00;91398.34;4939656;29;20024;-77
2023/11/30 05:47:59;;;;;;;3.75;2.20;;;;;;;0.52;100.00;91402.22;4948234;29;20051;-79
2023/11/30 05:50:24;;;;;;;3.60;2.38;;;;;;;0.62;100.00;91397.09;4941562;29;20039;-79
2023/11/30 05:52:50;;;;;;;4.10;2.50;;;;;;;0.49;100.00;91397.53;4935337;29;20552;-80
2023/11/30 05:55:16;;;;;;;4.57;2.40;;;;;;;0.39;100.00;91387.97;4935813;29;20056;-79
2023/11/30 05:57:41;;;;;;;3.70;2.25;;;;;;;0.35;100.00;91381.78;4953226;29;20055;-80
2023/11/30 06:00:10;;;;;;;4.65;2.40;;;;;;;0.34;100.00;91387.19;4935572;29;20051;-78
2023/11/30 06:02:39;;;;;;;3.97;2.35;;;;;;;0.26;100.00;91383.28;4940601;29;20047;-78
2023/11/30 06:05:05;;;;;;;4.53;2.45;;;;;;;0.29;100.00;91371.69;4934393;29;20027;-79
2023/11/30 06:07:30;;;;;;;3.97;2.50;;;;;;;0.27;100.00;91363.44;4942843;29;20063;-77
2023/11/30 06:09:56;;;;;;;3.72;2.20;;;;;;;0.19;100.00;91360.34;4941070;29;20035;-78
2023/11/30 06:12:22;;;;;;;4.85;2.28;;;;;;;0.01;100.00;91363.34;4945929;29;20035;-79
2023/11/30 06:14:47;;;;;;;3.90;2.22;;;;;;;0.05;100.00;91366.97;4928203;29;20047;-81
2023/11/30 06:17:13;;;;;;;3.75;2.22;;;;;;;0.00;100.00;91359.22;4943009;29;20056;-81
2023/11/30 06:19:39;;;;;;;4.05;2.30;;;;;;;-0.02;100.00;91350.97;4926680;29;20044;-83
2023/11/30 06:22:06;;;;;;;4.10;2.47;;;;;;;-0.06;100.00;91353.25;4908296;29;20068;-81
2023/11/30 06:24:32;;;;;;;5.28;2.38;;;;;;;-0.01;100.00;91345.56;4944898;29;20035;-80
2023/11/30 06:26:57;;;;;;;3.72;2.22;;;;;;;0.01;100.00;91350.47;4922942;29;20044;-79
2023/11/30 06:29:23;;;;;;;4.03;2.20;;;;;;;-0.05;100.00;91356.59;4941041;29;20040;-78
2023/11/30 06:31:48;;;;;;;3.80;2.22;;;;;;;-0.10;100.00;91348.84;4943287;29;20050;-80
2023/11/30 06:34:14;;;;;;;4.28;2.60;;;;;;;-0.03;100.00;91357.91;4943306;29;20128;-80
2023/11/30 06:36:39;;;;;;;5.07;2.40;;;;;;;-0.01;100.00;91347.38;4941171;29;20028;-79
2023/11/30 06:39:05;;;;;;;3.80;2.35;;;;;;;0.11;100.00;91360.81;4940935;29;20060;-81
2023/11/30 06:41:31;;;;;;;3.90;2.35;;;;;;;0.02;100.00;91353.81;4936309;29;20437;-79
2023/11/30 06:43:57;;;;;;;3.90;2.30;;;;;;;0.05;100.00;91346.38;4934082;29;20047;-79
2023/11/30 06:46:23;;;;;;;6.05;2.60;;;;;;;0.08;100.00;91351.00;4939279;29;20067;-80
2023/11/30 06:48:49;;;;;;;4.78;2.50;;;;;;;0.07;100.00;91354.63;4937933;29;20035;-81
2023/11/30 06:51:15;;;;;;;3.60;2.30;;;;;;;0.15;100.00;91355.94;4939921;29;20443;-79
2023/11/30 06:53:41;;;;;;;4.32;2.30;;;;;;;0.22;100.00;91360.84;4942036;29;20100;-81
2023/11/30 06:56:14;;;;;;;3.72;2.40;;;;;;;0.18;100.00;91361.38;4937805;29;22074;-79
2023/11/30 06:58:39;;;;;;;5.03;2.58;;;;;;;0.09;100.00;91362.88;4942114;29;20051;-79
2023/11/30 07:01:09;;;;;;;6.90;2.50;;;;;;;0.15;100.00;91355.94;4945230;29;20126;-78
2023/11/30 07:03:35;;;;;;;3.40;2.30;;;;;;;0.15;100.00;91351.56;4939460;29;20047;-80
2023/11/30 07:06:01;;;;;;;4.57;2.50;;;;;;;0.22;100.00;91363.44;4945238;29;20035;-80
2023/11/30 07:08:27;;;;;;;3.58;2.20;;;;;;;0.21;100.00;91370.38;4948899;29;20091;-82
2023/11/30 07:11:00;;;;;;;4.75;2.42;;;;;;;0.17;100.00;91372.69;4950197;29;20043;-81
2023/11/30 07:13:26;;;;;;;4.78;2.42;;;;;;;0.16;100.00;91378.09;4947264;29;20116;-82
2023/11/30 07:15:51;;;;;;;4.55;2.70;;;;;;;0.19;100.00;91377.59;4926714;29;20495;-82
2023/11/30 07:18:17;;;;;;;5.05;2.60;;;;;;;0.19;100.00;91378.34;4940393;29;20039;-82
2023/11/30 07:20:44;;;;;;;3.80;2.60;;;;;;;0.18;100.00;91370.88;4939397;29;20036;-78
2023/11/30 07:23:10;;;;;;;4.20;2.40;;;;;;;0.22;100.00;91378.88;4941701;29;20043;-81
2023/11/30 07:25:37;;;;;;;4.38;2.55;;;;;;;0.24;100.00;91374.25;4935112;29;20031;-79
2023/11/30 07:28:02;;;;;;;4.22;2.50;;;;;;;0.24;100.00;91376.84;4938201;29;20087;-80
2023/11/30 07:30:28;;;;;;;3.90;2.60;;;;;;;0.28;100.00;91380.47;4921705;29;20103;-80
2023/11/30 07:32:54;;;;;;;6.00;2.35;;;;;;;0.27;100.00;91378.91;4939125;29;20134;-80
2023/11/30 07:35:20;;;;;;;4.05;2.50;;;;;;;0.25;100.00;91362.91;4940858;29;20082;-80
2023/11/30 07:37:45;;;;;;;3.97;2.22;;;;;;;0.31;100.00;91364.50;4940785;29;20054;-80
2023/11/30 07:40:11;;;;;;;5.13;2.38;;;;;;;0.29;100.00;91361.41;4941479;29;20054;-81
2023/11/30 07:42:37;;;;;;;3.55;2.25;;;;;;;0.26;100.00;91354.19;4920964;29;20475;-80
2023/11/30 07:45:03;;;;;;;3.70;2.38;;;;;;;0.29;100.00;91361.41;4933861;29;20134;-79
2023/11/30 07:47:28;;;;;;;4.80;2.60;;;;;;;0.35;100.00;91370.72;4918279;29;20242;-79
2023/11/30 07:49:54;;;;;;;5.13;2.45;;;;;;;0.31;100.00;91370.41;4936993;29;20043;-81
2023/11/30 07:52:20;;;;;;;3.83;2.30;;;;;;;0.34;100.00;91369.16;4939167;29;20111;-80
2023/11/30 07:54:47;;;;;;;4.60;2.53;;;;;;;0.53;100.00;91380.56;4939112;29;20070;-80
2023/11/30 07:57:12;;;;;;;9.68;2.40;;;;;;;0.58;100.00;91375.44;4939249;29;20039;-80
2023/11/30 07:59:38;;;;;;;3.70;2.17;;;;;;;0.59;100.00;91369.25;4936524;29;20099;-81
2023/11/30 08:02:04;;;;;;;5.13;2.60;;;;;;;0.59;100.00;91373.66;4920661;29;20024;-78
2023/11/30 08:04:30;;;;;;;3.95;2.25;;;;;;;0.57;100.00;91378.28;4938660;29;20043;-79
2023/11/30 08:06:55;;;;;;;3.88;2.10;;;;;;;0.56;100.00;91384.44;4937460;29;20130;-81
2023/11/30 08:09:21;;;;;;;3.67;2.40;;;;;;;0.59;100.00;91371.06;4929240;29;20039;-82
2023/11/30 08:11:48;;;;;;;4.53;2.55;;;;;;;0.66;100.00;91376.75;4938680;29;20045;-81
2023/11/30 08:14:14;;;;;;;3.58;2.30;;;;;;;0.51;100.00;91394.72;4938904;29;20039;-81
2023/11/30 08:16:39;;;;;;;4.78;2.40;;;;;;;0.43;100.00;91398.56;4937987;29;20120;-80
2023/11/30 08:19:05;;;;;;;4.40;2.58;;;;;;;0.41;100.00;91396.22;4938687;29;20040;-81
2023/11/30 08:21:30;;;;;;;4.43;2.80;;;;;;;0.41;100.00;91385.94;4939511;29;20074;-80
2023/11/30 08:23:56;;;;;;;5.35;2.70;;;;;;;0.57;100.00;91370.53;4931170;29;20115;-81
2023/11/30 08:26:21;;;;;;;3.90;2.10;;;;;;;0.60;100.00;91365.66;4936942;29;20066;-80
2023/11/30 08:28:49;;;;;;;4.75;2.58;;;;;;;0.68;100.00;91374.72;4922820;29;20102;-80
2023/11/30 08:31:14;;;;;;;3.55;2.20;;;;;;;0.80;100.00;91374.47;4919532;29;20036;-80
2023/11/30 08:33:40;;;;;;;4.95;2.80;;;;;;;0.57;100.00;91358.44;4924053;29;20047;-81
2023/11/30 08:36:06;;;;;;;4.85;2.90;;;;;;;0.37;100.00;91359.13;4938354;29;20028;-81
2023/11/30 08:38:33;;;;;;;3.92;2.38;;;;;;;0.42;100.00;91355.81;4925717;29;20047;-80
2023/11/30 08:40:59;;;;;;;5.60;2.90;;;;;;;0.13;100.00;91338.16;4924964;29;20519;-80
2023/11/30 08:43:24;;;;;;;4.57;3.10;;;;;;;0.26;100.00;91343.91;4939107;29;20107;-79
2023/11/30 08:45:50;;;;;;;3.70;2.40;;;;;;;0.27;100.00;91351.38;4937540;29;20034;-80
2023/11/30 08:48:15;;;;;;;4.65;2.50;;;;;;;0.18;100.00;91358.00;4938077;29;20043;-78
2023/11/30 08:50:41;;;;;;;2.72;1.75;;;;;;;0.19;100.00;91352.59;4936977;29;20036;-79
2023/11/30 08:53:07;;;;;;;3.35;1.73;;;;;;;0.02;100.00;91352.00;4919705;29;20345;-79
2023/11/30 08:55:32;;;;;;;2.35;1.60;;;;;;;-0.02;100.00;91361.25;4928747;29;20353;-81
2023/11/30 08:57:58;;;;;;;3.50;1.90;;;;;;;0.02;100.00;91359.72;4935183;29;20082;-79
2023/11/30 09:00:24;;;;;;;3.20;2.10;;;;;;;-0.01;100.00;91357.66;4933344;29;20249;-81
2023/11/30 09:02:50;;;;;;;3.63;2.15;;;;;;;0.04;100.00;91360.25;4931806;29;20059;-81
2023/11/30 09:05:18;;;;;;;4.03;2.03;;;;;;;0.05;100.00;91351.53;4935822;29;20051;-77
2023/11/30 09:07:44;;;;;;;2.60;1.60;;;;;;;0.11;100.00;91360.81;4929590;29;20051;-81
2023/11/30 09:10:09;;;;;;;2.60;1.73;;;;;;;0.13;100.00;91363.91;4928931;29;20230;-81
2023/11/30 09:12:35;;;;;;;2.60;1.50;;;;;;;0.15;100.00;91359.28;4934262;29;20526;-79
2023/11/30 09:15:01;;;;;;;3.00;1.80;;;;;;;0.20;100.00;91364.47;4934485;29;20127;-80
2023/11/30 09:17:26;;;;;;;5.20;1.67;;;;;;;0.26;100.00;91367.06;4934738;29;20040;-79
2023/11/30 09:19:52;;;;;;;2.30;1.60;;;;;;;0.23;100.00;91367.56;4932671;29;20051;-79
2023/11/30 09:22:17;;;;;;;3.65;1.80;;;;;;;0.22;100.00;91368.59;4929397;29;20054;-79
2023/11/30 09:24:44;;;;;;;3.38;1.73;;;;;;;0.38;100.00;91363.28;4938028;29;20032;-80
2023/11/30 09:27:09;;;;;;;2.90;1.80;;;;;;;0.16;100.00;91366.00;4937635;29;20044;-80
2023/11/30 09:29:36;;;;;;;3.30;1.98;;;;;;;0.16;100.00;91368.56;4938260;29;20039;-80
2023/11/30 09:32:03;;;;;;;3.17;2.00;;;;;;;-0.02;100.00;91364.59;4922892;29;20035;-80
2023/11/30 09:34:30;;;;;;;3.92;2.13;;;;;;;-0.01;100.00;91360.22;4930369;29;20065;-80
2023/11/30 09:36:56;;;;;;;2.90;1.92;;;;;;;-0.14;100.00;91358.84;4934375;29;20025;-79
2023/11/30 09:39:22;;;;;;;3.40;2.10;;;;;;;-0.11;100.00;91352.44;4939583;29;20032;-78
2023/11/30 09:41:49;;;;;;;3.10;2.00;;;;;;;-0.05;100.00;91356.59;4938322;29;20035;-80
2023/11/30 09:44:14;;;;;;;3.35;2.00;;;;;;;0.04;100.00;91352.53;4938456;29;20090;-80
2023/11/30 09:46:40;;;;;;;5.85;2.10;;;;;;;0.01;100.00;91341.97;4938155;29;20491;-80
2023/11/30 09:49:06;;;;;;;3.42;2.10;;;;;;;0.00;100.00;91333.50;4937210;29;20059;-80
2023/11/30 09:51:33;;;;;;;3.95;2.10;;;;;;;0.07;100.00;91336.59;4938343;29;20031;-80
2023/11/30 09:53:59;;;;;;;3.25;2.03;;;;;;;0.04;100.00;91331.94;4938668;29;20043;-80
2023/11/30 09:56:28;;;;;;;3.78;2.00;;;;;;;-0.03;100.00;91323.69;4937415;29;20051;-78
2023/11/30 09:58:55;;;;;;;2.85;1.63;;;;;;;0.05;100.00;91320.63;4937212;29;20039;-81
2023/11/30 10:01:22;;;;;;;3.90;2.30;;;;;;;0.18;100.00;91333.06;4935081;29;20032;-80
2023/11/30 10:03:48;;;;;;;3.20;2.13;;;;;;;0.06;100.00;91332.47;4932823;29;20427;-80
2023/11/30 10:06:15;;;;;;;4.00;2.20;;;;;;;0.06;100.00;91323.97;4938495;29;20492;-79
2023/11/30 10:08:41;;;;;;;3.30;2.00;;;;;;;-0.01;100.00;91317.25;4918651;29;20122;-79
2023/11/30 10:11:08;;;;;;;3.40;2.10;;;;;;;-0.14;100.00;91304.84;4902353;29;20070;-78
2023/11/30 10:13:34;;;;;;;4.00;2.38;;;;;;;-0.13;100.00;91297.91;4937007;29;20044;-79
2023/11/30 10:16:00;;;;;;;3.50;2.13;;;;;;;-0.01;100.00;91303.63;4938277;29;20167;-78
2023/11/30 10:18:27;;;;;;;3.58;2.30;;;;;;;0.08;100.00;91289.25;4937688;29;20035;-80
2023/11/30 10:20:53;;;;;;;3.67;2.13;;;;;;;0.18;100.00;91297.03;4947698;29;20047;-81
2023/11/30 10:23:19;;;;;;;3.75;2.25;;;;;;;0.45;100.00;91287.56;4943094;29;20039;-79
2023/11/30 10:25:46;;;;;;;2.42;1.42;;;;;;;0.36;100.00;91275.22;4933781;29;20043;-79
2023/11/30 10:28:15;;;;;;;3.08;1.90;;;;;;;0.46;100.00;91284.00;4934791;29;20167;-82
2023/11/30 10:30:44;;;;;;;3.10;1.90;;;;;;;0.22;100.00;91286.22;4936365;29;20039;-81
2023/11/30 10:33:15;;;;;;;3.55;2.00;;;;;;;0.19;100.00;91275.41;4937482;29;20122;-80
2023/11/30 10:35:46;;;;;;;3.15;1.70;;;;;;;0.31;100.00;91266.69;4938132;29;20369;-81
2023/11/30 10:38:21;;;;;;;3.05;1.85;;;;;;;0.16;100.00;91270.75;4938390;29;20532;-79
2023/11/30 10:40:49;;;;;;;3.53;2.00;;;;;;;0.28;100.00;91270.53;4938159;29;20043;-80
2023/11/30 10:43:16;;;;;;;3.50;2.00;;;;;;;0.22;100.00;91255.34;4937382;29;20034;-81
2023/11/30 10:45:44;;;;;;;4.00;2.13;;;;;;;0.30;100.00;91260.00;4932119;29;20044;-79
2023/11/30 10:48:12;;;;;;;3.67;1.90;;;;;;;0.33;100.00;91254.34;4927146;29;20031;-81
2023/11/30 10:50:40;;;;;;;3.40;2.10;;;;;;;0.35;100.00;91252.28;4921813;29;20020;-82
2023/11/30 10:53:36;;;;;;;4.93;3.00;;;;;;;0.25;100.00;91234.22;4937633;29;20102;-80
2023/11/30 10:56:05;;;;;;;3.13;1.90;;;;;;;0.43;100.00;91240.69;4924949;29;20044;-81
2023/11/30 10:58:32;;;;;;;3.03;1.90;;;;;;;0.52;100.00;91237.41;4934489;29;20082;-81
2023/11/30 11:00:58;;;;;;;4.43;2.20;;;;;;;0.45;100.00;91236.88;4939043;29;20039;-79
2023/11/30 11:03:26;;;;;;;3.40;2.00;;;;;;;0.47;100.00;91237.38;4939371;29;20114;-81
2023/11/30 11:05:55;;;;;;;5.40;2.30;;;;;;;0.49;100.00;91244.84;4931315;29;20039;-82
2023/11/30 11:08:20;;;;;;;3.17;2.10;;;;;;;0.54;100.00;91243.06;4937191;29;20060;-78
2023/11/30 11:10:47;;;;;;;3.42;2.00;;;;;;;0.62;100.00;91236.63;4932430;29;20047;-81
2023/11/30 11:13:24;;;;;;;3.70;2.10;;;;;;;0.63;100.00;91238.16;4939341;29;20114;-80
2023/11/30 11:16:00;;;;;;;5.40;2.10;;;;;;;0.71;100.00;91227.38;4940400;29;20456;-82
2023/11/30 11:18:31;;;;;;;4.93;2.88;;;;;;;0.77;100.00;91223.00;4922486;29;20040;-80
2023/11/30 11:20:57;;;;;;;10.68;5.35;;;;;;;0.83;100.00;91216.81;4938373;29;20099;-82
2023/11/30 11:23:23;;;;;;;3.13;1.90;;;;;;;0.67;100.00;91199.81;4936489;29;20110;-80
2023/11/30 11:25:48;;;;;;;3.70;1.60;;;;;;;0.57;100.00;91198.00;4933756;29;20075;-81
2023/11/30 11:28:18;;;;;;;4.47;2.30;;;;;;;0.48;100.00;91197.72;4938022;29;20028;-80
2023/11/30 11:30:46;;;;;;;3.30;1.90;;;;;;;0.43;100.00;91196.94;4931776;29;20071;-82
2023/11/30 11:33:16;;;;;;;5.07;1.75;;;;;;;0.48;100.00;91195.16;4937475;29;20134;-80